FW4380 Newport NC US current weather conditions

sailwx.info

Wind from 233 at 1 knots gusting 3

Air temperature 24.4° C
Dewpoint 23.8° C

Last reported at 2020-Sep-18 10:07 UTC.
Time now 2020-Sep-18 10:52 UTC

Location: N 34°47' W 076°44'.
View on Google Maps.

See reports from other nearby stations

  
Tides and Currents Weather Stations Pressure Air Temp Water Temp Dewpoint Dewpoint Depression Visibility Wind Speed Wind Dir Waves Ship Positions
date/time (UTC)wind fromknots sea level pressurealtimeterstation pressurevisibilityair tempwater tempwave heightnotes
2020-Sep-18 10:07 233 1 gusting 3 24.4
2020-Sep-18 10:02 233 1 gusting 3 24.4
2020-Sep-18 09:57 233 2 gusting 4 24.4
2020-Sep-18 09:52 233 3 gusting 5 24.4
2020-Sep-18 09:47 247 5 gusting 6 24.4
2020-Sep-18 09:42 234 6 gusting 6 25.0
2020-Sep-18 09:37 220 5 gusting 6 25.0
2020-Sep-18 09:32 221 5 gusting 6 25.0
2020-Sep-18 09:27 230 5 gusting 6 25.0
2020-Sep-18 09:22 247 5 gusting 6 25.0
2020-Sep-18 09:17 249 5 gusting 7 25.0
2020-Sep-18 09:12 239 6 gusting 9 25.0
2020-Sep-18 09:07 241 6 gusting 9 25.0
2020-Sep-18 09:04 248 8 gusting 14 25.6
2020-Sep-18 08:57 244 9 gusting 14 25.6
2020-Sep-18 08:52 237 8 gusting 12 25.6
2020-Sep-18 08:47 237 8 gusting 12 25.6
2020-Sep-18 08:42 233 9 gusting 13 25.6
2020-Sep-18 08:37 222 11 gusting 13 25.6
2020-Sep-18 08:32 220 13 gusting 19 25.6
2020-Sep-18 08:27 230 13 gusting 22 26.1
2020-Sep-18 08:22 223 12 gusting 22 27.2
2020-Sep-18 08:17 193 11 gusting 15 27.2
2020-Sep-18 08:12 203 11 gusting 16 27.2
2020-Sep-18 08:07 199 12 gusting 19 27.2
2020-Sep-18 08:02 204 12 gusting 19 27.2
2020-Sep-18 07:57 189 11 gusting 16 27.2
2020-Sep-18 07:52 196 10 gusting 14 26.7
2020-Sep-18 07:49 182 10 gusting 16 26.7
2020-Sep-18 07:41 199 11 gusting 16 26.7
2020-Sep-18 07:37 186 12 gusting 17 26.7
2020-Sep-18 07:32 197 12 gusting 17 26.7
2020-Sep-18 07:27 195 10 gusting 15 26.7
2020-Sep-18 07:21 186 10 gusting 15 26.7
2020-Sep-18 07:16 205 9 gusting 15 26.7
2020-Sep-18 07:11 207 9 gusting 14 26.7
2020-Sep-18 07:06 203 12 gusting 18 26.7
2020-Sep-18 07:02 208 13 gusting 19 26.7
2020-Sep-18 06:57 203 14 gusting 19 26.7
2020-Sep-18 06:52 204 14 gusting 19 26.7
2020-Sep-18 06:46 195 15 gusting 23 26.7
2020-Sep-18 06:41 197 16 gusting 23 27.2
2020-Sep-18 06:36 207 13 gusting 22 27.2
2020-Sep-18 06:34 200 13 gusting 19 27.8
2020-Sep-18 06:26 185 13 gusting 17 27.8
2020-Sep-18 06:21 166 13 gusting 19 27.8
2020-Sep-18 06:16 189 13 gusting 22 27.8
2020-Sep-18 06:11 187 12 gusting 22 27.8
2020-Sep-18 06:06 189 13 gusting 19 27.8
2020-Sep-18 06:01 189 13 gusting 19 27.8
2020-Sep-18 05:56 153 11 gusting 19 27.8
2020-Sep-18 05:51 191 10 gusting 15 27.8
2020-Sep-18 05:46 178 10 gusting 17 27.8
2020-Sep-18 05:41 173 10 gusting 17 27.8
2020-Sep-18 05:36 164 11 gusting 16 27.8
2020-Sep-18 05:31 181 11 gusting 16 27.8
2020-Sep-18 05:26 172 11 gusting 16 27.8
2020-Sep-18 05:21 175 11 gusting 16 27.8
2020-Sep-18 05:19 187 12 gusting 17 27.8
2020-Sep-18 05:11 175 11 gusting 17 27.8
2020-Sep-18 05:06 166 11 gusting 16 27.8
2020-Sep-18 05:01 157 11 gusting 18 27.8
2020-Sep-18 04:56 153 11 gusting 18 27.8
2020-Sep-18 04:51 157 9 gusting 14 27.8
2020-Sep-18 04:46 162 9 gusting 15 27.8
2020-Sep-18 04:41 174 9 gusting 15 27.8
2020-Sep-18 04:36 175 8 gusting 14 27.8
2020-Sep-18 04:31 165 8 gusting 13 27.8
2020-Sep-18 04:26 146 7 gusting 12 27.8
2020-Sep-18 04:21 167 6 gusting 12 27.8
2020-Sep-18 04:16 148 7 gusting 13 27.2
2020-Sep-18 04:11 138 7 gusting 13 27.2
2020-Sep-18 04:06 151 7 gusting 11 27.2
2020-Sep-18 04:04 152 7 gusting 11 27.2
2020-Sep-18 03:56 157 8 gusting 12 27.2
2020-Sep-18 03:51 149 8 gusting 12 27.2
2020-Sep-18 03:46 146 9 gusting 13 27.2
2020-Sep-18 03:41 137 9 gusting 13 27.2
2020-Sep-18 03:36 137 9 gusting 13 27.2
2020-Sep-18 03:31 137 9 gusting 12 27.2
2020-Sep-18 03:26 139 9 gusting 12 27.2
2020-Sep-18 03:21 149 8 gusting 12 27.2
2020-Sep-18 03:16 155 7 gusting 12 27.2
2020-Sep-18 03:11 150 6 gusting 10 27.2
2020-Sep-18 03:06 144 6 gusting 10 26.7
2020-Sep-18 03:01 157 6 gusting 10 26.7
2020-Sep-18 02:56 143 6 gusting 10 26.7
2020-Sep-18 02:51 159 6 gusting 9 26.7
2020-Sep-18 02:48 145 5 gusting 7 26.7
2020-Sep-18 02:41 135 4 gusting 7 26.1
2020-Sep-18 02:36 140 3 gusting 6 26.1
2020-Sep-18 02:31 146 3 gusting 6 26.1
2020-Sep-18 02:26 158 4 gusting 7 26.1
2020-Sep-18 02:21 202 5 gusting 11 26.1
2020-Sep-18 02:16 155 6 gusting 11 26.1
2020-Sep-18 02:11 201 5 gusting 8 26.1
2020-Sep-18 02:06 185 5 gusting 8 26.1
2020-Sep-18 02:01 155 6 gusting 12 26.1
2020-Sep-18 01:56 171 8 gusting 12 26.1
2020-Sep-18 01:51 164 7 gusting 12 26.1
2020-Sep-18 01:46 171 6 gusting 12 26.1
2020-Sep-18 01:41 186 5 gusting 12 26.1
2020-Sep-18 01:36 178 4 gusting 7 26.1
2020-Sep-18 01:34 161 4 gusting 6 26.1
2020-Sep-18 01:26 161 3 gusting 6 26.1
2020-Sep-18 01:21 165 3 gusting 6 25.6
2020-Sep-18 01:16 137 6 gusting 12 25.6
2020-Sep-18 01:10 169 8 gusting 12 25.6
2020-Sep-18 01:05 126 8 gusting 12 25.6
2020-Sep-18 01:00 114 9 gusting 13 25.6
2020-Sep-18 00:55 130 11 gusting 13 25.6
2020-Sep-18 00:50 132 10 gusting 13 25.0
2020-Sep-18 00:45 095 9 gusting 13 25.0
2020-Sep-18 00:40 102 8 gusting 12 25.0
2020-Sep-18 00:35 085 7 gusting 12 25.0
2020-Sep-18 00:30 072 9 gusting 12 25.0
2020-Sep-18 00:25 092 10 gusting 14 25.0
2020-Sep-18 00:20 087 11 gusting 15 25.0
2020-Sep-18 00:18 093 11 gusting 15 24.4
2020-Sep-18 00:10 103 12 gusting 15 24.4
2020-Sep-18 00:05 101 11 gusting 15 24.4
2020-Sep-18 00:00 095 11 gusting 15 24.4
2020-Sep-17 23:55 092 11 gusting 15 24.4
2020-Sep-17 23:50 103 12 gusting 15 24.4
2020-Sep-17 23:45 103 12 gusting 15 24.4
2020-Sep-17 23:40 112 10 gusting 14 24.4
2020-Sep-17 23:35 102 8 gusting 13 24.4
2020-Sep-17 23:30 099 6 gusting 9 24.4
2020-Sep-17 23:25 078 3 gusting 7 24.4
2020-Sep-17 23:20 086 1 gusting 4 24.4
2020-Sep-17 23:15 087 2 gusting 4 24.4
2020-Sep-17 23:10 087 2 gusting 6 23.9
2020-Sep-17 23:05 087 2 gusting 6 23.9
2020-Sep-17 23:03 092 2 gusting 4 24.4
2020-Sep-17 22:55 093 2 gusting 3 23.9
2020-Sep-17 22:50 093 2 gusting 3 24.4
2020-Sep-17 22:45 093 2 gusting 3 24.4
2020-Sep-17 22:40 094 0 gusting 3 24.4
2020-Sep-17 22:35 096 0 gusting 2 24.4
2020-Sep-17 22:30 096 1 gusting 2 24.4
2020-Sep-17 22:25 096 1 gusting 3 24.4
2020-Sep-17 22:20 097 3 gusting 10 24.4
2020-Sep-17 22:15 099 6 gusting 10 24.4
2020-Sep-17 22:10 094 6 gusting 10 24.4
2020-Sep-17 22:05 110 3 gusting 10 24.4
2020-Sep-17 22:00 162 1 gusting 4 24.4
2020-Sep-17 21:55 212 2 gusting 4 24.4
2020-Sep-17 21:50 212 1 gusting 4 24.4
2020-Sep-17 21:47 128 0 gusting 3 24.4
2020-Sep-17 21:40 120 0 gusting 1 24.4
2020-Sep-17 21:35 120 0 gusting 1 24.4
2020-Sep-17 21:25 120 0 gusting 1 24.4
2020-Sep-17 21:20 120 1 gusting 3 24.4
2020-Sep-17 21:15 120 2 gusting 4 24.4
2020-Sep-17 21:10 120 3 gusting 4 24.4
2020-Sep-17 21:05 128 2 gusting 4 24.4
2020-Sep-17 21:00 147 2 gusting 3 24.4
2020-Sep-17 20:54 147 2 gusting 3 24.4
2020-Sep-17 20:50 151 1 gusting 3 24.4
2020-Sep-17 20:45 151 2 gusting 4 24.4
2020-Sep-17 20:40 151 3 gusting 6 24.4
2020-Sep-17 20:34 151 4 gusting 7 24.4
2020-Sep-17 20:29 166 5 gusting 7 24.4
2020-Sep-17 20:24 183 5 gusting 6 24.4
2020-Sep-17 20:19 189 4 gusting 6 25.0
2020-Sep-17 20:14 102 3 gusting 4 25.6
2020-Sep-17 20:04 086 0 gusting 3 25.6
2020-Sep-17 19:59 086 1 gusting 2 25.6
2020-Sep-17 19:54 086 1 gusting 3 25.6
2020-Sep-17 19:44 086 1 gusting 3 25.6
2020-Sep-17 19:39 086 1 gusting 3 25.6
2020-Sep-17 19:34 086 1 gusting 4 25.6
2020-Sep-17 19:29 086 1 gusting 4 25.6
2020-Sep-17 19:24 086 1 gusting 4 25.6
2020-Sep-17 19:19 086 2 gusting 4 25.6
2020-Sep-17 19:14 087 2 gusting 6 25.6
2020-Sep-17 19:09 091 2 gusting 6 25.6
2020-Sep-17 19:04 091 3 gusting 6 25.6
2020-Sep-17 18:59 083 3 gusting 6 25.6
2020-Sep-17 18:54 083 3 gusting 7 25.6
2020-Sep-17 18:49 084 4 gusting 7 25.6
2020-Sep-17 18:39 083 3 gusting 6 25.6
2020-Sep-17 18:34 096 3 gusting 6 25.6
2020-Sep-17 18:29 106 4 gusting 6 25.0
2020-Sep-17 18:24 110 4 gusting 5 25.0
2020-Sep-17 18:19 111 5 gusting 6 25.0
2020-Sep-17 18:14 112 4 gusting 7 25.0
2020-Sep-17 18:09 099 2 gusting 7 25.0
2020-Sep-17 18:04 123 3 gusting 5 25.0
2020-Sep-17 17:59 126 4 gusting 6 25.6
2020-Sep-17 17:54 127 4 gusting 6 25.6
2020-Sep-17 17:49 131 3 gusting 6 25.0
2020-Sep-17 17:44 133 3 gusting 4 25.0
2020-Sep-17 17:39 144 2 gusting 4 25.0
2020-Sep-17 17:33 144 2 gusting 4 25.0
2020-Sep-17 17:23 146 3 gusting 5 25.0
2020-Sep-17 17:18 147 2 gusting 5 25.0
2020-Sep-17 17:13 159 3 gusting 5 25.0
2020-Sep-17 17:03 177 5 gusting 6 25.0
2020-Sep-17 16:58 180 5 gusting 7 25.0
2020-Sep-17 16:53 178 5 gusting 8 24.4
2020-Sep-17 16:48 181 5 gusting 8 24.4
2020-Sep-17 16:43 164 4 gusting 7 24.4
2020-Sep-17 16:38 143 4 gusting 7 23.9
2020-Sep-17 16:33 137 4 gusting 6 23.9
2020-Sep-17 16:28 135 6 gusting 10 24.4
2020-Sep-17 16:23 184 4 gusting 10 24.4
2020-Sep-17 16:18 199 0 gusting 6 24.4
2020-Sep-17 16:13 047 0 gusting 3 24.4
2020-Sep-17 16:08 047 1 gusting 4 24.4
2020-Sep-17 16:03 046 2 gusting 4 24.4
2020-Sep-17 15:58 048 2 gusting 4 24.4
2020-Sep-17 15:48 044 2 gusting 4 24.4
2020-Sep-17 15:43 044 2 gusting 4 24.4
2020-Sep-17 15:38 039 2 gusting 4 24.4
2020-Sep-17 15:33 038 2 gusting 4 25.0
2020-Sep-17 15:28 032 2 gusting 4 25.0
2020-Sep-17 15:23 031 2 gusting 4 25.0
2020-Sep-17 15:18 054 2 gusting 5 25.0
2020-Sep-17 15:13 056 3 gusting 6 25.0
2020-Sep-17 15:08 056 4 gusting 8 24.4
2020-Sep-17 15:03 080 5 gusting 8 24.4
2020-Sep-17 14:58 097 5 gusting 7 24.4
2020-Sep-17 14:53 099 6 gusting 8 24.4
2020-Sep-17 14:48 110 6 gusting 9 24.4
2020-Sep-17 14:43 105 6 gusting 9 24.4
2020-Sep-17 14:38 120 5 gusting 7 24.4
2020-Sep-17 14:33 100 5 gusting 8 24.4
2020-Sep-17 14:28 119 4 gusting 8 24.4
2020-Sep-17 14:23 109 3 gusting 6 24.4
2020-Sep-17 14:13 124 6 gusting 9 24.4
2020-Sep-17 14:08 157 4 gusting 9 24.4
2020-Sep-17 14:03 109 3 gusting 6 24.4
2020-Sep-17 13:58 045 4 gusting 6 24.4
2020-Sep-17 13:53 028 4 gusting 6 24.4
2020-Sep-17 13:48 069 4 gusting 6 24.4
2020-Sep-17 13:43 056 3 gusting 7 24.4
2020-Sep-17 13:38 053 4 gusting 7 24.4
2020-Sep-17 13:33 062 4 gusting 7 24.4
2020-Sep-17 13:28 036 5 gusting 9 23.9
2020-Sep-17 13:23 053 5 gusting 9 23.9
2020-Sep-17 13:18 043 4 gusting 7 23.9
2020-Sep-17 13:13 039 3 gusting 6 23.9
2020-Sep-17 13:08 026 3 gusting 6 23.9
2020-Sep-17 12:57 046 4 gusting 6 23.9
2020-Sep-17 12:52 033 3 gusting 6 23.9
2020-Sep-17 12:47 052 3 gusting 6 23.9
2020-Sep-17 12:42 056 4 gusting 8 23.9
2020-Sep-17 12:37 029 6 gusting 11 23.9
2020-Sep-17 12:32 091 8 gusting 13 23.9
2020-Sep-17 12:27 102 6 gusting 13 23.9
2020-Sep-17 12:22 105 5 gusting 8 23.3
2020-Sep-17 12:17 072 3 gusting 8 22.8
2020-Sep-17 12:12 049 2 gusting 5 22.8
2020-Sep-17 12:07 039 2 gusting 4 22.2
2020-Sep-17 12:02 035 3 gusting 4 22.2
2020-Sep-17 11:57 038 3 gusting 4 22.2
2020-Sep-17 11:52 047 2 gusting 4 22.2
2020-Sep-17 11:50 031 2 gusting 4 22.2
2020-Sep-17 11:42 043 1 gusting 3 22.2
2020-Sep-17 11:37 038 1 gusting 2 22.2
2020-Sep-17 11:32 039 1 gusting 4 22.2
2020-Sep-17 11:27 039 2 gusting 4 22.2
2020-Sep-17 11:22 044 2 gusting 5 22.2
2020-Sep-17 11:17 036 3 gusting 6 22.2
2020-Sep-17 11:12 032 3 gusting 6 22.2
2020-Sep-17 11:07 062 3 gusting 6 22.8
2020-Sep-17 11:02 062 3 gusting 6 22.8
2020-Sep-17 10:57 061 3 gusting 6 22.8
2020-Sep-17 10:52 069 4 gusting 6 22.8
2020-Sep-17 10:47 050 4 gusting 8 22.8
2020-Sep-17 10:42 047 4 gusting 8 22.8
2020-Sep-17 10:37 064 3 gusting 6 23.3
2020-Sep-17 10:32 050 3 gusting 11 23.3
2020-Sep-17 10:27 072 5 gusting 11 23.9
2020-Sep-17 10:22 070 6 gusting 11 24.4
2020-Sep-17 10:17 074 6 gusting 11 24.4
2020-Sep-17 10:14 066 6 gusting 11 24.4
2020-Sep-17 10:07 079 6 gusting 11 24.4
2020-Sep-17 10:02 083 6 gusting 14 25.0
2020-Sep-17 09:57 064 6 gusting 14 25.0
2020-Sep-17 09:52 072 8 gusting 14 25.0
2020-Sep-17 09:47 089 9 gusting 14 25.0
2020-Sep-17 09:42 085 10 gusting 14 25.0
2020-Sep-17 09:37 096 10 gusting 14 25.6
2020-Sep-17 09:32 104 11 gusting 14 25.6
2020-Sep-17 09:27 089 11 gusting 15 25.6
2020-Sep-17 09:22 100 10 gusting 15 25.6
2020-Sep-17 09:17 103 10 gusting 14 25.6
2020-Sep-17 09:12 115 10 gusting 14 25.6
2020-Sep-17 09:07 097 11 gusting 15 25.6
2020-Sep-17 09:02 099 10 gusting 15 25.6
2020-Sep-17 08:59 095 7 gusting 14 25.6
2020-Sep-17 08:51 109 4 gusting 10 25.6
2020-Sep-17 08:47 085 2 gusting 6 25.0
2020-Sep-17 08:42 058 1 gusting 4 25.0
2020-Sep-17 08:36 051 2 gusting 4 25.0
2020-Sep-17 08:31 049 3 gusting 6 25.0
2020-Sep-17 08:26 045 3 gusting 6 25.0
2020-Sep-17 08:21 049 2 gusting 5 25.0
2020-Sep-17 08:16 068 2 gusting 5 25.0
2020-Sep-17 08:12 072 2 gusting 6 25.0
2020-Sep-17 08:06 062 3 gusting 6 25.6
2020-Sep-17 08:01 054 4 gusting 9 25.6
2020-Sep-17 07:56 055 6 gusting 9 25.6
2020-Sep-17 07:51 089 6 gusting 9 25.6
2020-Sep-17 07:46 101 6 gusting 9 25.6
2020-Sep-17 07:41 099 5 gusting 8 25.6
2020-Sep-17 07:36 087 6 gusting 8 25.6
2020-Sep-17 07:31 096 6 gusting 9 26.1
2020-Sep-17 07:26 108 6 gusting 9 26.1
2020-Sep-17 07:21 099 6 gusting 8 26.1
2020-Sep-17 07:16 108 6 gusting 9 26.1
2020-Sep-17 07:11 105 6 gusting 9 26.1
2020-Sep-17 07:06 093 6 gusting 12 25.6
2020-Sep-17 07:01 094 6 gusting 12 25.6
2020-Sep-17 06:56 092 6 gusting 8 25.6
2020-Sep-17 06:51 093 4 gusting 7 25.6
2020-Sep-17 06:46 071 4 gusting 8 25.6
2020-Sep-17 06:43 056 6 gusting 9 25.6
2020-Sep-17 06:36 090 6 gusting 9 25.6
2020-Sep-17 06:31 085 7 gusting 11 25.6
2020-Sep-17 06:26 097 7 gusting 11 26.1
2020-Sep-17 06:21 101 7 gusting 11 26.1
2020-Sep-17 06:16 096 7 gusting 11 26.1
2020-Sep-17 06:11 097 7 gusting 11 26.1
2020-Sep-17 06:06 109 7 gusting 11 26.1
2020-Sep-17 06:01 100 7 gusting 13 26.1
2020-Sep-17 05:56 097 7 gusting 13 26.1
2020-Sep-17 05:51 097 7 gusting 11 26.1
2020-Sep-17 05:46 098 8 gusting 11 26.1
2020-Sep-17 05:41 099 8 gusting 11 26.1
2020-Sep-17 05:36 099 8 gusting 12 26.1
2020-Sep-17 05:31 102 8 gusting 12 26.1
2020-Sep-17 05:28 101 8 gusting 14 26.1
2020-Sep-17 05:21 091 8 gusting 14 26.1
2020-Sep-17 05:16 090 8 gusting 13 26.1
2020-Sep-17 05:11 081 8 gusting 13 26.1
2020-Sep-17 05:06 102 9 gusting 13 26.1
2020-Sep-17 05:01 097 9 gusting 13 26.1
2020-Sep-17 04:56 089 9 gusting 13 26.1
2020-Sep-17 04:51 098 9 gusting 13 26.1
2020-Sep-17 04:46 106 9 gusting 13 26.1
2020-Sep-17 04:41 082 10 gusting 13 26.1
2020-Sep-17 04:35 097 10 gusting 13 26.1
2020-Sep-17 04:30 099 10 gusting 13 26.1
2020-Sep-17 04:25 098 9 gusting 13 26.1
2020-Sep-17 04:20 112 8 gusting 13 26.1
2020-Sep-17 04:15 101 8 gusting 12 26.1
2020-Sep-17 04:13 095 8 gusting 12 26.1
2020-Sep-17 04:05 104 8 gusting 12 26.1
2020-Sep-17 04:00 096 8 gusting 12 26.1
2020-Sep-17 03:55 106 7 gusting 12 26.1
2020-Sep-17 03:50 088 7 gusting 11 26.1
2020-Sep-17 03:45 093 7 gusting 11 26.1
2020-Sep-17 03:40 067 7 gusting 11 26.1
2020-Sep-17 03:35 077 7 gusting 11 25.6
2020-Sep-17 03:30 091 7 gusting 11 25.6
2020-Sep-17 03:25 075 7 gusting 12 25.6
2020-Sep-17 03:20 074 6 gusting 12 25.6
2020-Sep-17 03:15 081 6 gusting 9 25.6
2020-Sep-17 03:10 064 4 gusting 8 25.0
2020-Sep-17 03:05 089 3 gusting 8 25.0
2020-Sep-17 03:00 070 3 gusting 8 24.4
2020-Sep-17 02:58 055 2 gusting 6 24.4
2020-Sep-17 02:50 050 2 gusting 4 24.4
2020-Sep-17 02:45 043 2 gusting 4 23.9
2020-Sep-17 02:40 045 2 gusting 4 23.9
2020-Sep-17 02:35 044 2 gusting 4 23.9
2020-Sep-17 02:30 042 2 gusting 4 23.9
2020-Sep-17 02:25 035 2 gusting 4 23.9
2020-Sep-17 02:20 035 2 gusting 4 23.9
2020-Sep-17 02:15 033 2 gusting 4 23.9
2020-Sep-17 02:10 033 2 gusting 4 23.9
2020-Sep-17 02:05 039 1 gusting 3 23.9
2020-Sep-17 02:00 039 2 gusting 3 23.9
2020-Sep-17 01:55 039 2 gusting 3 23.9
2020-Sep-17 01:50 039 1 gusting 3 23.9
2020-Sep-17 01:45 039 1 gusting 3 23.9
2020-Sep-17 01:42 039 1 gusting 3 23.9
2020-Sep-17 01:35 039 1 gusting 2 24.4
2020-Sep-17 01:30 039 1 gusting 3 24.4
2020-Sep-17 01:25 040 1 gusting 3 24.4
2020-Sep-17 01:15 049 2 gusting 4 24.4
2020-Sep-17 01:10 058 2 gusting 4 24.4
2020-Sep-17 01:05 043 2 gusting 4 24.4
2020-Sep-17 00:55 041 3 gusting 6 24.4
2020-Sep-17 00:50 047 3 gusting 6 24.4
2020-Sep-17 00:40 057 3 gusting 6 24.4
2020-Sep-17 00:35 037 2 gusting 6 24.4
2020-Sep-17 00:28 040 2 gusting 4 25.0
2020-Sep-17 00:20 044 2 gusting 4 25.0
2020-Sep-17 00:15 047 2 gusting 4 25.0
2020-Sep-17 00:10 047 2 gusting 5 25.0
2020-Sep-17 00:04 049 3 gusting 6 25.0
2020-Sep-16 23:59 042 3 gusting 6 25.0
2020-Sep-16 23:55 057 2 gusting 4 25.6
2020-Sep-16 23:49 053 3 gusting 6 25.6
2020-Sep-16 23:44 054 3 gusting 6 25.6
2020-Sep-16 23:39 057 3 gusting 6 25.6
2020-Sep-16 23:34 063 3 gusting 6 25.6
2020-Sep-16 23:29 052 4 gusting 6 25.6
2020-Sep-16 23:24 070 4 gusting 8 25.6
2020-Sep-16 23:19 068 5 gusting 9 25.6
2020-Sep-16 23:14 068 6 gusting 9 26.1
2020-Sep-16 23:04 072 4 gusting 6 25.6
2020-Sep-16 22:59 083 4 gusting 6 26.1
2020-Sep-16 22:54 063 4 gusting 6 26.1
2020-Sep-16 22:49 070 5 gusting 8 26.1
2020-Sep-16 22:44 067 6 gusting 13 26.1
2020-Sep-16 22:39 076 7 gusting 13 26.1
2020-Sep-16 22:34 074 8 gusting 13 26.7
2020-Sep-16 22:29 082 8 gusting 13 26.7
2020-Sep-16 22:24 083 8 gusting 13 26.7
2020-Sep-16 22:19 100 9 gusting 13 26.7
2020-Sep-16 22:14 083 9 gusting 13 26.7
2020-Sep-16 22:09 090 9 gusting 13 26.7
2020-Sep-16 22:04 093 9 gusting 13 26.7
2020-Sep-16 21:59 096 10 gusting 15 26.7
2020-Sep-16 21:49 108 11 gusting 15 26.7
2020-Sep-16 21:44 103 11 gusting 15 26.7
2020-Sep-16 21:39 092 10 gusting 13 26.7
2020-Sep-16 21:34 100 10 gusting 13 26.7
2020-Sep-16 21:29 089 10 gusting 15 26.7
2020-Sep-16 21:24 092 10 gusting 15 26.7
2020-Sep-16 21:19 064 11 gusting 15 26.7
2020-Sep-16 21:14 094 11 gusting 15 26.7
2020-Sep-16 21:09 087 11 gusting 16 26.7
2020-Sep-16 21:04 108 11 gusting 16 26.7
2020-Sep-16 20:59 066 10 gusting 14 26.7
2020-Sep-16 20:54 092 11 gusting 16 26.7
2020-Sep-16 20:49 108 12 gusting 16 26.7
2020-Sep-16 20:44 113 12 gusting 15 26.7
2020-Sep-16 20:34 082 11 gusting 16 26.7
2020-Sep-16 20:29 108 12 gusting 18 26.7
2020-Sep-16 20:24 104 13 gusting 18 27.2
2020-Sep-16 20:14 105 13 gusting 19 26.7
2020-Sep-16 20:09 093 13 gusting 19 26.7
2020-Sep-16 20:04 103 13 gusting 19 26.7
2020-Sep-16 19:59 095 12 gusting 15 26.7
2020-Sep-16 19:54 091 12 gusting 16 26.7
2020-Sep-16 19:49 084 13 gusting 19 27.2
2020-Sep-16 19:44 094 13 gusting 19 26.7
2020-Sep-16 19:39 113 13 gusting 18 26.7
2020-Sep-16 19:34 106 13 gusting 18 26.7
2020-Sep-16 19:29 109 13 gusting 18 26.7
2020-Sep-16 19:24 114 13 gusting 18 26.7
2020-Sep-16 19:19 118 13 gusting 17 26.7
2020-Sep-16 19:14 115 14 gusting 19 26.7
2020-Sep-16 19:09 101 13 gusting 19 26.7
2020-Sep-16 18:59 110 13 gusting 18 27.2
2020-Sep-16 18:54 107 13 gusting 18 26.7
2020-Sep-16 18:49 111 13 gusting 18 26.7
2020-Sep-16 18:39 114 13 gusting 19 26.7
2020-Sep-16 18:34 108 13 gusting 19 26.7
2020-Sep-16 18:29 103 13 gusting 19 26.7
2020-Sep-16 18:24 106 13 gusting 16 26.7
2020-Sep-16 18:19 104 13 gusting 16 26.7
2020-Sep-16 18:14 101 13 gusting 16 26.7
2020-Sep-16 18:09 103 13 gusting 18 26.7
2020-Sep-16 18:04 104 13 gusting 18 26.7
2020-Sep-16 17:59 118 13 gusting 19 26.7
2020-Sep-16 17:53 111 13 gusting 19 26.7
2020-Sep-16 17:48 112 13 gusting 18 26.7
2020-Sep-16 17:43 106 13 gusting 19 26.7
2020-Sep-16 17:39 111 13 gusting 19 26.7
2020-Sep-16 17:29 101 13 gusting 17 26.7
2020-Sep-16 17:23 103 13 gusting 17 26.7
2020-Sep-16 17:18 104 13 gusting 18 26.7
2020-Sep-16 17:08 117 8 gusting 15 26.7
2020-Sep-16 17:03 100 4 gusting 13 26.1
2020-Sep-16 16:58 070 2 gusting 6 25.6
2020-Sep-16 16:53 039 2 gusting 9 25.0
2020-Sep-16 16:48 051 2 gusting 9 25.0
2020-Sep-16 16:43 114 4 gusting 9 25.0
2020-Sep-16 16:38 125 6 gusting 9 25.0
2020-Sep-16 16:33 121 8 gusting 13 25.0
2020-Sep-16 16:28 097 9 gusting 18 25.6
2020-Sep-16 16:23 104 11 gusting 18 25.6
2020-Sep-16 16:18 083 12 gusting 18 26.1
2020-Sep-16 16:13 099 12 gusting 18 26.7
2020-Sep-16 16:08 100 10 gusting 16 26.7
2020-Sep-16 16:03 113 7 gusting 13 26.7
2020-Sep-16 15:53 087 5 gusting 7 27.2
2020-Sep-16 15:48 076 5 gusting 8 26.7
2020-Sep-16 15:43 077 4 gusting 8 26.7
2020-Sep-16 15:38 064 5 gusting 11 26.7
2020-Sep-16 15:33 050 5 gusting 11 26.7
2020-Sep-16 15:28 048 6 gusting 11 26.7
2020-Sep-16 15:23 047 6 gusting 11 26.7
2020-Sep-16 15:18 089 6 gusting 11 27.2
2020-Sep-16 15:13 064 6 gusting 10 26.7
2020-Sep-16 15:08 056 6 gusting 13 26.7
2020-Sep-16 15:03 045 6 gusting 13 26.7
2020-Sep-16 14:58 052 6 gusting 13 26.7
2020-Sep-16 14:53 020 6 gusting 13 26.1
2020-Sep-16 14:48 028 6 gusting 11 26.7
2020-Sep-16 14:38 056 6 gusting 9 26.1
2020-Sep-16 14:33 048 6 gusting 9 26.1
2020-Sep-16 14:28 070 5 gusting 8 26.1
2020-Sep-16 14:23 035 6 gusting 9 25.6
2020-Sep-16 14:18 086 6 gusting 11 25.6
2020-Sep-16 14:13 045 6 gusting 11 25.6
2020-Sep-16 14:08 049 6 gusting 12 25.6
2020-Sep-16 14:03 053 6 gusting 12 25.6
2020-Sep-16 13:58 024 6 gusting 9 25.0
2020-Sep-16 13:53 047 6 gusting 11 25.0
2020-Sep-16 13:48 034 6 gusting 12 24.4
2020-Sep-16 13:43 029 6 gusting 12 24.4
2020-Sep-16 13:38 045 6 gusting 10 24.4
2020-Sep-16 13:32 041 6 gusting 12 24.4
2020-Sep-16 13:23 020 7 gusting 13 24.4
2020-Sep-16 13:17 053 6 gusting 12 24.4
2020-Sep-16 13:12 041 6 gusting 13 24.4
2020-Sep-16 13:03 042 6 gusting 13 24.4
2020-Sep-16 12:57 053 6 gusting 13 24.4
2020-Sep-16 12:52 026 7 gusting 13 23.9
2020-Sep-16 12:47 054 6 gusting 13 23.9
2020-Sep-16 12:42 035 6 gusting 13 23.9
2020-Sep-16 12:37 034 6 gusting 10 23.9
2020-Sep-16 12:32 018 6 gusting 11 23.3
2020-Sep-16 12:27 023 6 gusting 11 23.3
2020-Sep-16 12:22 018 6 gusting 9 23.3
2020-Sep-16 12:17 031 5 gusting 9 23.3
2020-Sep-16 12:12 028 5 gusting 8 22.8
2020-Sep-16 12:07 043 4 gusting 8 22.8
2020-Sep-16 12:02 039 4 gusting 8 22.8
2020-Sep-16 11:57 020 5 gusting 8 22.8
2020-Sep-16 11:55 023 5 gusting 8 22.2
2020-Sep-16 11:47 052 4 gusting 8 22.2
2020-Sep-16 11:42 018 4 gusting 8 22.2
2020-Sep-16 11:37 004 4 gusting 7 22.2
2020-Sep-16 11:32 030 4 gusting 7 21.7
2020-Sep-16 11:27 029 4 gusting 7 21.7
2020-Sep-16 11:22 052 4 gusting 9 21.7
2020-Sep-16 11:17 021 4 gusting 9 21.7
2020-Sep-16 11:12 028 4 gusting 8 21.7
2020-Sep-16 11:07 016 4 gusting 7 21.7
2020-Sep-16 11:02 043 4 gusting 7 21.7
2020-Sep-16 10:57 021 4 gusting 7 21.7
2020-Sep-16 10:52 022 3 gusting 6 21.7
2020-Sep-16 10:47 021 3 gusting 6 21.7
2020-Sep-16 10:42 040 4 gusting 8 21.7
2020-Sep-16 10:40 036 4 gusting 8 21.7
2020-Sep-16 10:32 033 4 gusting 8 21.7
2020-Sep-16 10:27 017 4 gusting 8 21.7